Time,TemperatureF,DewpointF,PressureIn,WindDirection,WindDirectionDegrees,WindSpeedMPH,WindSpeedGustMPH,Humidity,HourlyPrecipIn,Conditions,Clouds,dailyrainin,SoftwareType,DateUTC
2013-07-11 00:09:00,72.7,71.4,30.09,North,0,0.0,0.0,96,0.00,,,0.00,meteobridge,2013-07-11 04:09:00,
2013-07-11 00:19:00,73.0,71.8,30.09,North,0,0.0,0.0,96,0.00,,,0.00,meteobridge,2013-07-11 04:19:00,
2013-07-11 00:29:00,73.0,71.8,30.09,South,180,0.0,0.0,96,0.00,,,0.00,meteobridge,2013-07-11 04:29:00,
2013-07-11 00:39:00,73.0,71.8,30.09,North,0,0.0,0.0,96,0.00,,,0.00,meteobridge,2013-07-11 04:39:00,
2013-07-11 00:49:00,73.0,71.8,30.08,North,0,0.0,0.0,96,0.00,,,0.00,meteobridge,2013-07-11 04:49:00,
2013-07-11 00:59:00,73.0,71.8,30.08,North,0,0.0,0.0,96,0.00,,,0.00,meteobridge,2013-07-11 04:59:00,
2013-07-11 01:09:00,72.7,71.4,30.08,North,0,0.0,0.0,96,0.00,,,0.00,meteobridge,2013-07-11 05:09:00,
2013-07-11 01:20:00,72.5,71.2,30.08,North,0,0.0,0.0,96,0.00,,,0.00,meteobridge,2013-07-11 05:20:00,
2013-07-11 01:30:00,72.5,71.2,30.09,North,0,0.0,0.0,96,0.00,,,0.00,meteobridge,2013-07-11 05:30:00,
2013-07-11 01:40:00,72.5,71.2,30.09,North,0,0.0,0.0,96,0.00,,,0.00,meteobridge,2013-07-11 05:40:00,
2013-07-11 01:50:00,72.3,71.1,30.09,North,0,0.0,0.0,96,0.00,,,0.00,meteobridge,2013-07-11 05:50:00,
2013-07-11 02:00:00,72.3,71.1,30.09,North,0,0.0,0.0,96,0.00,,,0.00,meteobridge,2013-07-11 06:00:00,
2013-07-11 02:10:00,72.5,71.2,30.08,North,0,0.0,0.0,96,0.00,,,0.00,meteobridge,2013-07-11 06:10:00,
2013-07-11 02:20:00,72.7,71.8,30.08,North,0,0.0,0.0,97,0.00,,,0.00,meteobridge,2013-07-11 06:20:00,
2013-07-11 02:30:00,72.7,71.8,30.07,North,0,0.0,0.0,97,0.00,,,0.00,meteobridge,2013-07-11 06:30:00,
2013-07-11 02:40:00,72.7,71.8,30.06,North,0,0.0,0.0,97,0.00,,,0.00,meteobridge,2013-07-11 06:40:00,
2013-07-11 02:51:00,72.5,71.6,30.07,North,0,0.0,0.0,97,0.00,,,0.00,meteobridge,2013-07-11 06:51:00,
2013-07-11 03:01:00,72.5,71.6,30.06,North,0,0.0,0.0,97,0.00,,,0.00,meteobridge,2013-07-11 07:01:00,
2013-07-11 03:11:00,72.5,71.6,30.06,North,0,0.0,0.0,97,0.00,,,0.00,meteobridge,2013-07-11 07:11:00,
2013-07-11 03:21:00,72.1,71.2,30.06,West,270,0.0,0.7,97,0.00,,,0.00,meteobridge,2013-07-11 07:21:00,
2013-07-11 03:31:00,72.1,71.2,30.06,West,270,0.0,0.0,97,0.00,,,0.00,meteobridge,2013-07-11 07:31:00,
2013-07-11 03:41:00,72.0,71.1,30.06,West,270,0.0,0.0,97,0.00,,,0.00,meteobridge,2013-07-11 07:41:00,
2013-07-11 03:51:00,71.8,70.9,30.06,West,270,0.0,0.0,97,0.00,,,0.00,meteobridge,2013-07-11 07:51:00,
2013-07-11 04:01:00,71.6,70.7,30.06,West,270,0.0,0.0,97,0.00,,,0.00,meteobridge,2013-07-11 08:01:00,
2013-07-11 04:11:00,71.4,70.9,30.06,West,270,0.0,0.0,98,0.00,,,0.00,meteobridge,2013-07-11 08:11:00,
2013-07-11 04:21:00,71.4,70.9,30.06,West,270,0.0,0.0,98,0.00,,,0.00,meteobridge,2013-07-11 08:21:00,
2013-07-11 04:32:00,71.2,70.7,30.06,West,270,0.0,0.0,98,0.00,,,0.00,meteobridge,2013-07-11 08:32:00,
2013-07-11 04:42:00,71.1,70.5,30.06,West,270,0.0,0.0,98,0.00,,,0.00,meteobridge,2013-07-11 08:42:00,
2013-07-11 04:52:00,71.1,70.5,30.06,West,270,0.0,0.0,98,0.00,,,0.00,meteobridge,2013-07-11 08:52:00,
2013-07-11 05:02:00,71.1,70.5,30.06,West,270,0.0,0.0,98,0.00,,,0.00,meteobridge,2013-07-11 09:02:00,
2013-07-11 05:12:00,70.9,70.3,30.06,North,0,0.0,0.0,98,0.00,,,0.00,meteobridge,2013-07-11 09:12:00,
2013-07-11 05:22:00,70.7,70.2,30.06,North,0,0.0,0.0,98,0.00,,,0.00,meteobridge,2013-07-11 09:22:00,
2013-07-11 05:32:00,70.7,69.8,30.06,North,0,0.0,0.0,97,0.00,,,0.00,meteobridge,2013-07-11 09:32:00,
2013-07-11 05:42:00,70.5,69.6,30.06,North,0,0.0,0.0,97,0.00,,,0.00,meteobridge,2013-07-11 09:42:00,
2013-07-11 19:37:00,-999.0,-99.9,-100.00,North,-999,-999.0,-999.0,-999,-99.99,,,-99.99,,2013-07-11 23:37:00,
2013-07-11 19:51:00,-999.0,-99.9,-100.00,North,-999,-999.0,-999.0,-999,-99.99,,,-99.99,,2013-07-11 23:51:00,
2013-07-11 19:59:00,-999.0,-99.9,-100.00,North,-999,-999.0,-999.0,-999,-99.99,,,-99.99,,2013-07-11 23:59:00,
2013-07-11 20:05:00,-999.0,-99.9,-100.00,North,-999,-999.0,-999.0,-999,-99.99,,,-99.99,,2013-07-12 00:05:00,
2013-07-11 20:14:00,78.8,72.9,29.99,North,0,0.0,0.0,82,0.00,,,0.00,meteobridge,2013-07-12 00:14:00,
2013-07-11 20:23:00,-999.0,-99.9,-100.00,North,-999,-999.0,-999.0,-999,-99.99,,,-99.99,,2013-07-12 00:23:00,
2013-07-11 20:34:00,77.7,72.5,30.00,North,0,0.0,0.0,84,0.00,,,0.00,meteobridge,2013-07-12 00:34:00,
2013-07-11 20:44:00,77.0,72.1,30.00,North,0,0.0,0.0,85,0.00,,,0.00,meteobridge,2013-07-12 00:44:00,
2013-07-11 20:54:00,76.5,72.3,30.01,North,0,0.0,0.0,87,0.00,,,0.00,meteobridge,2013-07-12 00:54:00,
2013-07-11 21:04:00,75.9,72.1,30.01,North,0,0.0,0.0,88,0.00,,,0.00,meteobridge,2013-07-12 01:04:00,
2013-07-11 21:14:00,75.7,72.3,30.01,North,0,0.0,0.0,89,0.00,,,0.00,meteobridge,2013-07-12 01:14:00,
2013-07-11 21:24:00,75.4,72.3,30.01,North,0,0.0,0.0,90,0.00,,,0.00,meteobridge,2013-07-12 01:24:00,
2013-07-11 21:45:00,74.7,72.1,30.01,North,0,0.0,0.0,92,0.00,,,0.00,meteobridge,2013-07-12 01:45:00,
2013-07-11 21:55:00,74.5,72.3,30.01,North,0,0.0,0.0,93,0.00,,,0.00,meteobridge,2013-07-12 01:55:00,
2013-07-11 22:05:00,74.1,72.0,30.01,North,0,0.0,0.0,93,0.00,,,0.00,meteobridge,2013-07-12 02:05:00,
2013-07-11 22:15:00,73.9,72.1,30.01,North,0,0.0,0.0,94,0.00,,,0.00,meteobridge,2013-07-12 02:15:00,
2013-07-11 22:25:00,73.8,72.0,30.01,North,0,0.0,0.0,94,0.00,,,0.00,meteobridge,2013-07-12 02:25:00,
2013-07-11 22:35:00,73.6,72.1,30.01,North,0,0.0,0.0,95,0.00,,,0.00,meteobridge,2013-07-12 02:35:00,
2013-07-11 22:45:00,73.6,72.1,30.01,North,0,0.0,0.0,95,0.00,,,0.00,meteobridge,2013-07-12 02:45:00,
2013-07-11 22:55:00,73.4,72.0,30.02,North,0,0.0,0.0,95,0.00,,,0.00,meteobridge,2013-07-12 02:55:00,
2013-07-11 23:06:00,73.2,71.4,30.01,North,0,0.0,0.0,94,0.00,,,0.00,meteobridge,2013-07-12 03:06:00,
2013-07-11 23:16:00,72.9,71.1,30.01,North,0,0.0,0.0,94,0.00,,,0.00,meteobridge,2013-07-12 03:16:00,
2013-07-11 23:26:00,72.7,70.9,30.01,North,0,0.0,0.0,94,0.00,,,0.00,meteobridge,2013-07-12 03:26:00,
2013-07-11 23:36:00,72.7,70.9,30.00,North,0,0.0,0.0,94,0.00,,,0.00,meteobridge,2013-07-12 03:36:00,
2013-07-11 23:46:00,72.7,70.9,30.00,North,0,0.0,0.0,94,0.00,,,0.00,meteobridge,2013-07-12 03:46:00,
2013-07-11 23:56:00,72.3,70.9,30.00,North,0,0.0,0.0,95,0.00,,,0.00,meteobridge,2013-07-12 03:56:00,